Aérodrome :
LOGIN :

S'inscrire | Disclaimer

   EN    FR    IT 

 










Légende :    VFR   VFR Marginal   IFR   IFR Intensif   IFR Très Intensif
Visi : 
Plafond : 
>= 8 km
>= 3000ft
5 à 8 km
1000 à 3000 ft
1500m à 5 km
500 à 1000 ft
800 à 1500m
200 à 500 ft
< 800m
< 200 ft
Symboles :   Orages  Brouillard  Fortes neiges  Fortes précipitations  Vent > 20 kt
SIGMETs :   Divers  Orages  Givrage  Turbulence  Onde Orograph.  Cendres Volcan.







- Altitude de l'aérodrome : 1115 ft
- Code IATA : GRZ


LOWG - Graz

DERNIER METAR :
  • 102020Z AUTO 25003KT 220V280 9999 NSC M01/M02 Q1016 R17/19//95 NOSIG

METARs EXPIRÉS :
  • 101950Z AUTO VRB02KT 9999 FEW020 SCT070 M00/M02 Q1016 R17/19//95 NOSIG
  • 101920Z AUTO 28004KT 240V310 9999 FEW022 BKN050 01/M01 Q1017 R17/19//95 NOSIG
  • 101850Z AUTO VRB01KT 9999 FEW050 BKN080 M01/M03 Q1016 R17/19//95 NOSIG
  • 101820Z AUTO VRB02KT 9999 FEW042 00/M02 Q1016 R17/19//95 NOSIG
  • 101750Z 03005KT 350V060 9999 FEW050 SCT070 00/M01 Q1015 R17/19//95 NOSIG
  • 101720Z 01005KT 330V030 9999 FEW050 SCT240 M01/M03 Q1016 R17/19//95 NOSIG

TAF TAF LOWG
Valide du 10 à 18h jusqu'au 11 à 18h UTC


101715Z 1018/1118 VRB02KT 9999 FEW050 TX05/1113Z TNM04/1106Z
TEMPO 1111/1116 33007KT BKN045
Pas de NOTAMs connus pour ce terrain.



MET'MAP, la Météo Aéronautique d'un coup d'oeil ! - Copyright ORBIFLY Décembre 2007 - Disclaimer

ORBIFLY MET'MAP TEAM :

Programmation & Développement : Alexandra Zaïnal
Conception & Développement : Baudouin d'Aumeries
Co-Programmation & Développement : Marc-Olivier Méhu
Soutien technique & logistique : Manuel Goepfert

Contact : metmap@orbifly.com




SOURCES & CREDITS :

   NOAA